CYET

Edson Airport

Edson, Alberta, Canada
METAR CYET 240700Z AUTO 04005KT 9SM BKN120 17/06 A2971 RMK SLP049 DENSITY ALT 4100FT
Observed Flight Rules
May-24 @ 07:00 UTC (an hour ago) Visual Flight Rules
Wind Visibility Clouds
40° at 5 knots 9 miles
  • Broken at 12,000' AGL
Temperatures Readings
Current 17°C / 63°F
Dewpoint 6°C / 43°F
Humidity 49%
Altimeter 29.71" Hg
Pressure 1004.9 hPa
Elevation 925
METAR CYET 240700Z AUTO 04005KT 9SM BKN120 17/06 A2971 RMK SLP049 DENSITY ALT 4100FT
Observed Flight Rules
May-24 @ 07:00 UTC
(an hour ago)
VFR
Wind Visibility
40° at 5 knots 9 miles
Clouds
  • Broken at 12,000' AGL
Temperature Dewpoint
17°C / 63°F 6°C / 43°F
Humidity Altimeter Pressure
49% 29.71" Hg 1004.9 hPa